createdAt,value
2019-01-12T00:01:19.466Z,28.02
2019-01-12T00:03:48.535Z,34.15
2019-01-12T00:06:17.587Z,25.20
2019-01-12T00:08:46.883Z,33.25
2019-01-12T00:11:15.823Z,36.45
2019-01-12T00:13:44.623Z,35.00
2019-01-12T00:16:13.716Z,29.75
2019-01-12T00:18:42.883Z,33.98
2019-01-12T00:21:11.849Z,37.50
2019-01-12T00:23:40.707Z,36.08
2019-01-12T00:26:09.972Z,43.87
2019-01-12T00:28:38.985Z,19.42
2019-01-12T00:31:07.881Z,34.27
2019-01-12T00:33:36.823Z,22.02
2019-01-12T00:36:05.794Z,23.15
2019-01-12T00:38:34.638Z,28.30
2019-01-12T00:41:03.687Z,22.48
2019-01-12T00:43:32.645Z,15.53
2019-01-12T00:46:01.588Z,20.75
2019-01-12T00:48:30.674Z,27.67
2019-01-12T00:50:59.892Z,32.40
2019-01-12T00:53:28.659Z,29.48
2019-01-12T00:55:57.673Z,38.85
2019-01-12T00:58:26.645Z,21.85
2019-01-12T01:00:55.642Z,20.25
2019-01-12T01:03:24.662Z,21.68
2019-01-12T01:05:53.850Z,21.30
2019-01-12T01:08:22.852Z,16.60
2019-01-12T01:10:51.590Z,15.68
2019-01-12T01:13:20.601Z,21.05
2019-01-12T01:15:49.611Z,20.08
2019-01-12T01:18:18.737Z,27.22
2019-01-12T01:20:47.633Z,22.30
2019-01-12T01:23:16.687Z,23.42
2019-01-12T01:25:45.635Z,25.02
2019-01-12T01:28:14.935Z,23.42
2019-01-12T01:30:44.008Z,25.50
2019-01-12T01:33:13.250Z,22.60
2019-01-12T01:35:42.198Z,17.80
2019-01-12T01:38:11.618Z,24.07
2019-01-12T01:40:40.547Z,22.42
2019-01-12T01:43:09.515Z,19.23
2019-01-12T01:45:38.356Z,19.50
2019-01-12T01:48:07.274Z,20.35
2019-01-12T01:50:36.348Z,24.82
2019-01-12T01:53:05.464Z,22.52
2019-01-12T01:55:34.324Z,26.07
2019-01-12T01:58:03.375Z,18.42
2019-01-12T02:00:32.358Z,17.25
2019-01-12T02:03:01.660Z,20.02
2019-01-12T02:05:30.714Z,17.35
2019-01-12T02:07:59.790Z,22.62
2019-01-12T02:10:28.753Z,31.48
2019-01-12T02:12:57.774Z,34.33
2019-01-12T02:15:26.705Z,28.98
2019-01-12T02:17:56.015Z,27.90
2019-01-12T02:20:24.781Z,30.37
2019-01-12T02:22:56.465Z,34.33
2019-01-12T02:25:25.724Z,34.90
2019-01-12T02:27:54.586Z,31.05
2019-01-12T02:30:24.908Z,21.95
2019-01-12T02:32:54.596Z,16.93
2019-01-12T02:35:23.697Z,17.85
2019-01-12T02:37:53.108Z,31.15
2019-01-12T02:40:22.175Z,13.93
2019-01-12T02:42:50.985Z,16.65
2019-01-12T02:45:20.097Z,20.60
2019-01-12T02:47:48.860Z,16.17
2019-01-12T02:50:17.774Z,16.97
2019-01-12T02:52:46.776Z,24.57
2019-01-12T02:55:15.712Z,27.20
2019-01-12T02:57:44.782Z,28.42
2019-01-12T03:00:18.411Z,27.15
2019-01-12T03:02:47.559Z,28.77
2019-01-12T03:05:16.513Z,13.65
2019-01-12T03:07:45.805Z,23.45
2019-01-12T03:10:16.483Z,24.40
2019-01-12T03:12:45.358Z,16.73
2019-01-12T03:15:16.736Z,19.62
2019-01-12T03:17:45.651Z,33.02
2019-01-12T03:20:16.263Z,29.95
2019-01-12T03:22:45.210Z,31.17
2019-01-12T03:25:18.467Z,29.82
2019-01-12T03:27:45.050Z,33.38
2019-01-12T03:30:16.708Z,34.78
2019-01-12T03:32:45.961Z,25.88
2019-01-12T03:35:15.046Z,22.05
2019-01-12T03:37:43.797Z,18.60
2019-01-12T03:40:15.533Z,11.38
2019-01-12T03:42:44.338Z,24.23
2019-01-12T03:45:14.339Z,24.10
2019-01-12T03:47:43.379Z,27.30
2019-01-12T03:50:13.496Z,22.37
2019-01-12T03:52:42.486Z,16.93
2019-01-12T03:55:13.217Z,16.52
2019-01-12T03:57:42.341Z,13.88
2019-01-12T04:00:14.782Z,28.98
2019-01-12T04:02:43.786Z,31.82
2019-01-12T04:05:14.969Z,31.80
2019-01-12T04:07:43.911Z,29.82
2019-01-12T04:10:13.443Z,25.32
2019-01-12T04:12:42.358Z,26.68
2019-01-12T04:15:11.775Z,24.30
2019-01-12T04:17:40.747Z,16.55
2019-01-12T04:20:11.986Z,26.45
2019-01-12T04:22:41.080Z,28.40
2019-01-12T04:25:10.070Z,22.00
2019-01-12T04:27:39.221Z,33.30
2019-01-12T04:30:11.450Z,25.23
2019-01-12T04:32:40.402Z,28.12
2019-01-12T04:35:09.684Z,29.92
2019-01-12T04:37:38.887Z,32.65
2019-01-12T04:40:10.654Z,27.35
2019-01-12T04:42:39.715Z,32.33
2019-01-12T04:45:08.798Z,28.62
2019-01-12T04:47:38.070Z,22.77
2019-01-12T04:50:09.271Z,20.55
2019-01-12T04:52:38.226Z,13.32
2019-01-12T04:55:07.668Z,23.92
2019-01-12T04:57:36.755Z,27.55
2019-01-12T05:00:06.829Z,31.68
2019-01-12T05:02:35.987Z,20.57
2019-01-12T05:05:05.366Z,28.95
2019-01-12T05:07:34.098Z,13.48
2019-01-12T05:10:03.116Z,22.10
2019-01-12T05:12:32.292Z,25.48
2019-01-12T05:15:01.254Z,28.00
2019-01-12T05:17:30.176Z,19.05
2019-01-12T05:19:59.117Z,26.17
2019-01-12T05:22:27.996Z,24.05
2019-01-12T05:24:57.221Z,25.15
2019-01-12T05:27:26.196Z,32.15
2019-01-12T05:29:55.330Z,18.60
2019-01-12T05:32:24.310Z,19.23
2019-01-12T05:34:53.266Z,28.95
2019-01-12T05:37:22.403Z,33.95
2019-01-12T05:39:51.234Z,26.80
2019-01-12T05:42:20.160Z,24.87
2019-01-12T05:44:49.345Z,28.02
2019-01-12T05:47:18.274Z,19.75
2019-01-12T05:49:47.145Z,23.73
2019-01-12T05:52:16.123Z,26.85
2019-01-12T05:54:45.093Z,16.90
2019-01-12T05:57:14.049Z,27.65
2019-01-12T05:59:42.887Z,31.15
2019-01-12T06:02:11.834Z,34.03
2019-01-12T06:04:40.765Z,26.23
2019-01-12T06:07:09.617Z,23.92
2019-01-12T06:09:38.569Z,21.07
2019-01-12T06:12:07.736Z,25.25
2019-01-12T06:14:36.509Z,24.85
2019-01-12T06:17:05.854Z,28.77
2019-01-12T06:19:34.820Z,31.60
2019-01-12T06:22:04.344Z,29.07
2019-01-12T06:24:33.120Z,28.73
2019-01-12T06:27:02.118Z,28.98
2019-01-12T06:29:31.339Z,29.77
2019-01-12T06:32:00.330Z,19.92
2019-01-12T06:34:29.347Z,28.83
2019-01-12T06:36:58.195Z,25.35
2019-01-12T06:39:27.335Z,23.60
2019-01-12T06:41:56.362Z,38.38
2019-01-12T06:44:25.489Z,21.73
2019-01-12T06:46:54.488Z,17.40
2019-01-12T06:49:23.571Z,27.60
2019-01-12T06:51:52.405Z,28.50
2019-01-12T06:54:22.502Z,23.40
2019-01-12T06:56:51.283Z,21.82
2019-01-12T06:59:20.346Z,22.32
2019-01-12T07:01:49.273Z,24.67
2019-01-12T07:04:18.278Z,27.58
2019-01-12T07:06:47.031Z,26.10
2019-01-12T07:09:15.889Z,24.82
2019-01-12T07:11:44.843Z,27.77
2019-01-12T07:14:14.173Z,18.48
2019-01-12T07:16:42.927Z,18.07
2019-01-12T07:19:11.940Z,21.60
2019-01-12T07:21:40.954Z,26.17
2019-01-12T07:24:09.808Z,20.45
2019-01-12T07:26:38.894Z,29.90
2019-01-12T07:29:07.955Z,27.13
2019-01-12T07:31:36.719Z,22.45
2019-01-12T07:34:05.850Z,18.37
2019-01-12T07:36:35.262Z,30.77
2019-01-12T07:39:07.273Z,25.12
2019-01-12T07:41:36.053Z,25.60
2019-01-12T07:44:05.238Z,30.80
2019-01-12T07:46:34.311Z,34.50
2019-01-12T07:49:03.150Z,32.42
2019-01-12T07:51:32.196Z,27.62
2019-01-12T07:54:01.329Z,37.28
2019-01-12T07:56:31.680Z,29.80
2019-01-12T07:59:00.490Z,35.13
2019-01-12T08:01:29.470Z,34.08
2019-01-12T08:03:58.260Z,34.08
2019-01-12T08:06:27.147Z,34.83
2019-01-12T08:08:56.240Z,18.65
2019-01-12T08:11:25.211Z,33.75
2019-01-12T08:13:54.320Z,41.60
2019-01-12T08:16:23.322Z,31.87
2019-01-12T08:18:52.395Z,32.05
2019-01-12T08:21:21.659Z,29.63
2019-01-12T08:23:50.920Z,29.65
2019-01-12T08:26:20.013Z,32.13
2019-01-12T08:28:52.178Z,17.45
2019-01-12T08:31:21.375Z,30.80
2019-01-12T08:33:50.887Z,32.67
2019-01-12T08:36:19.990Z,44.98
2019-01-12T08:38:48.970Z,31.40
2019-01-12T08:41:18.387Z,23.40
2019-01-12T08:43:50.435Z,41.88
2019-01-12T08:46:19.473Z,43.45
2019-01-12T08:48:48.607Z,29.15
2019-01-12T08:51:18.854Z,25.68
2019-01-12T08:53:50.235Z,28.55
2019-01-12T08:56:19.287Z,26.40
2019-01-12T08:58:50.263Z,29.30
2019-01-12T09:01:18.847Z,25.50
2019-01-12T09:03:47.647Z,58.50
2019-01-12T09:06:16.606Z,56.53
2019-01-12T09:08:45.814Z,79.15
2019-01-12T09:11:15.085Z,40.73
2019-01-12T09:13:45.126Z,24.35
2019-01-12T09:16:14.370Z,20.68
2019-01-12T09:18:43.471Z,23.60
2019-01-12T09:21:12.614Z,25.52
2019-01-12T09:23:41.598Z,22.98
2019-01-12T09:26:10.469Z,33.60
2019-01-12T09:28:39.397Z,22.60
2019-01-12T09:31:08.186Z,24.40
2019-01-12T09:33:37.220Z,16.32
2019-01-12T09:36:06.227Z,16.48
2019-01-12T09:38:35.204Z,15.10
2019-01-12T09:41:04.516Z,18.32
2019-01-12T09:43:36.359Z,20.45
2019-01-12T09:46:05.378Z,15.30
2019-01-12T09:48:34.119Z,12.58
2019-01-12T09:51:03.008Z,13.00
2019-01-12T09:53:32.086Z,12.68
2019-01-12T09:56:01.067Z,19.37
2019-01-12T09:58:29.975Z,12.70
2019-01-12T10:00:58.721Z,17.55
2019-01-12T10:03:28.078Z,11.73
2019-01-12T10:05:57.191Z,16.77
2019-01-12T10:08:26.347Z,9.48
2019-01-12T10:10:55.174Z,9.00
2019-01-12T10:13:24.312Z,8.88
2019-01-12T10:15:53.383Z,6.30
2019-01-12T10:18:22.141Z,6.22
2019-01-12T10:20:51.198Z,6.65
2019-01-12T10:23:21.332Z,6.30
2019-01-12T10:25:52.323Z,5.83
2019-01-12T10:28:21.517Z,6.83
2019-01-12T10:30:50.539Z,7.15
2019-01-12T10:33:19.304Z,7.47
2019-01-12T10:35:49.658Z,6.15
2019-01-12T10:38:18.867Z,4.33
2019-01-12T10:40:48.219Z,9.45
2019-01-12T10:43:17.498Z,6.12
2019-01-12T10:45:46.715Z,10.18
2019-01-12T10:48:15.630Z,6.65
2019-01-12T10:50:44.715Z,9.93
2019-01-12T10:53:13.646Z,9.30
2019-01-12T10:55:42.696Z,8.10
2019-01-12T10:58:11.651Z,9.20
2019-01-12T11:00:41.270Z,17.05
2019-01-12T11:03:10.368Z,8.70
2019-01-12T11:05:39.275Z,8.60
2019-01-12T11:08:08.526Z,4.75
2019-01-12T11:10:39.902Z,8.00
2019-01-12T11:13:08.627Z,10.63
2019-01-12T11:15:37.738Z,6.60
2019-01-12T11:18:10.992Z,7.20
2019-01-12T11:20:42.066Z,7.28
2019-01-12T11:23:10.944Z,8.58
2019-01-12T11:25:43.043Z,7.67
2019-01-12T11:28:12.869Z,11.15
2019-01-12T11:30:44.684Z,11.55
2019-01-12T11:33:13.619Z,8.45
2019-01-12T11:35:44.369Z,11.57
2019-01-12T11:38:13.316Z,9.33
2019-01-12T11:40:46.193Z,12.35
2019-01-12T11:43:14.978Z,15.15
2019-01-12T11:45:50.828Z,9.15
2019-01-12T11:48:19.793Z,9.08
2019-01-12T11:50:48.545Z,9.75
2019-01-12T11:53:17.699Z,12.05
2019-01-12T11:55:46.732Z,11.65
2019-01-12T11:58:15.821Z,9.63
2019-01-12T12:00:44.800Z,13.00
2019-01-12T12:03:13.667Z,12.35
2019-01-12T12:05:51.187Z,10.80
2019-01-12T12:08:19.938Z,12.98
2019-01-12T12:10:48.740Z,11.38
2019-01-12T12:13:17.735Z,13.88
2019-01-12T12:15:46.529Z,12.03
2019-01-12T12:18:18.653Z,12.68
2019-01-12T12:20:47.674Z,11.85
2019-01-12T12:23:16.523Z,12.20
2019-01-12T12:25:45.895Z,11.57
2019-01-12T12:28:14.873Z,10.95
2019-01-12T12:30:43.854Z,16.57
2019-01-12T12:33:14.882Z,14.47
2019-01-12T12:35:45.477Z,13.30
2019-01-12T12:38:15.719Z,14.70
2019-01-12T12:40:46.940Z,11.90
2019-01-12T12:43:15.920Z,18.82
2019-01-12T12:45:44.839Z,17.80
2019-01-12T12:48:19.807Z,16.23
2019-01-12T12:50:55.901Z,17.30
2019-01-12T12:53:24.797Z,17.00
2019-01-12T12:55:55.908Z,15.43
2019-01-12T12:58:24.800Z,15.88
2019-01-12T13:00:54.143Z,14.38
2019-01-12T13:03:23.444Z,14.78
2019-01-12T13:05:52.823Z,16.93
2019-01-12T13:08:21.802Z,15.75
2019-01-12T13:10:53.477Z,19.25
2019-01-12T13:13:22.294Z,19.35
2019-01-12T13:15:51.433Z,18.10
2019-01-12T13:18:23.236Z,18.15
2019-01-12T13:20:55.274Z,21.70
2019-01-12T13:23:26.446Z,25.57
2019-01-12T13:25:55.367Z,24.07
2019-01-12T13:28:26.376Z,26.95
2019-01-12T13:30:55.494Z,27.00
2019-01-12T13:33:24.411Z,26.15
2019-01-12T13:35:53.273Z,27.62
2019-01-12T13:38:22.554Z,19.00
2019-01-12T13:40:51.759Z,22.67
2019-01-12T13:43:22.203Z,27.13
2019-01-12T13:45:51.319Z,25.55
2019-01-12T13:48:20.469Z,28.62
2019-01-12T13:50:49.606Z,25.48
2019-01-12T13:53:23.276Z,23.32
2019-01-12T13:55:52.090Z,15.00
2019-01-12T13:58:21.355Z,12.13
2019-01-12T14:00:50.965Z,17.60
2019-01-12T14:03:20.058Z,16.73
2019-01-12T14:05:49.115Z,18.15
2019-01-12T14:08:21.112Z,13.75
2019-01-12T14:10:49.843Z,16.55
2019-01-12T14:13:18.867Z,16.90
2019-01-12T14:15:47.859Z,17.90
2019-01-12T14:18:24.746Z,15.05
2019-01-12T14:20:53.548Z,20.32
2019-01-12T14:23:22.320Z,21.23
2019-01-12T14:25:51.277Z,17.70
2019-01-12T14:28:20.266Z,24.02
2019-01-12T14:30:49.096Z,22.30
2019-01-12T14:33:22.034Z,20.80
2019-01-12T14:35:51.055Z,23.47
2019-01-12T14:38:20.235Z,17.25
2019-01-12T14:40:50.857Z,16.85
2019-01-12T14:43:21.050Z,15.43
2019-01-12T14:45:49.797Z,17.17
2019-01-12T14:48:18.667Z,23.98
2019-01-12T14:50:47.707Z,20.02
2019-01-12T14:53:16.886Z,11.12
2019-01-12T14:55:46.079Z,10.63
2019-01-12T14:58:15.549Z,14.83
2019-01-12T15:00:44.675Z,16.50
2019-01-12T15:03:14.013Z,23.75
2019-01-12T15:05:42.764Z,15.43
2019-01-12T15:08:11.767Z,18.37
2019-01-12T15:10:40.998Z,18.35
2019-01-12T15:13:12.164Z,23.05
2019-01-12T15:15:41.391Z,19.40
2019-01-12T15:18:10.206Z,22.55
2019-01-12T15:20:39.243Z,21.07
2019-01-12T15:23:08.302Z,25.15
2019-01-12T15:25:37.192Z,20.80
2019-01-12T15:28:09.289Z,27.45
2019-01-12T15:30:39.343Z,27.05
2019-01-12T15:33:10.073Z,23.77
2019-01-12T15:35:40.848Z,34.03
2019-01-12T15:38:09.875Z,26.10
2019-01-12T15:40:39.472Z,25.30
2019-01-12T15:43:08.389Z,23.42
2019-01-12T15:45:37.187Z,27.58
2019-01-12T15:48:06.559Z,29.52
2019-01-12T15:50:37.903Z,23.20
2019-01-12T15:53:12.339Z,24.37
2019-01-12T15:55:41.459Z,24.30
2019-01-12T15:58:16.181Z,21.48
2019-01-12T16:00:41.791Z,18.87
2019-01-12T16:03:10.680Z,28.55
2019-01-12T16:05:39.615Z,22.00
2019-01-12T16:08:11.627Z,26.42
2019-01-12T16:10:40.374Z,23.83
2019-01-12T16:13:10.771Z,27.25
2019-01-12T16:15:39.629Z,26.90
2019-01-12T16:18:08.774Z,27.87
2019-01-12T16:20:39.306Z,27.73
2019-01-12T16:23:08.737Z,28.05
2019-01-12T16:25:38.936Z,30.40
2019-01-12T16:28:08.179Z,22.27
2019-01-12T16:30:37.276Z,30.10
2019-01-12T16:33:08.965Z,38.55
2019-01-12T16:35:38.043Z,24.02
2019-01-12T16:38:06.933Z,25.27
2019-01-12T16:40:35.783Z,24.37
2019-01-12T16:43:04.926Z,23.18
2019-01-12T16:45:33.950Z,26.93
2019-01-12T16:48:02.855Z,31.40
2019-01-12T16:50:31.896Z,34.25
2019-01-12T16:53:01.022Z,23.52
2019-01-12T16:55:29.891Z,25.23
2019-01-12T16:57:58.877Z,20.60
2019-01-12T17:00:29.652Z,23.35
2019-01-12T17:02:59.102Z,19.85
2019-01-12T17:05:28.113Z,16.60
2019-01-12T17:07:56.970Z,18.10
2019-01-12T17:10:26.008Z,14.13
2019-01-12T17:12:55.096Z,17.12
2019-01-12T17:15:24.465Z,18.42
2019-01-12T17:17:53.620Z,21.35
2019-01-12T17:20:24.768Z,14.07
2019-01-12T17:22:56.833Z,16.93
2019-01-12T17:25:26.834Z,14.43
2019-01-12T17:27:55.906Z,14.95
2019-01-12T17:30:25.054Z,10.80
2019-01-12T17:32:53.949Z,17.98
2019-01-12T17:35:22.958Z,15.30
2019-01-12T17:37:52.131Z,13.90
2019-01-12T17:40:21.049Z,9.55
2019-01-12T17:42:50.374Z,10.38
2019-01-12T17:45:21.214Z,12.43
2019-01-12T17:47:50.275Z,11.53
2019-01-12T17:50:20.735Z,12.85
2019-01-12T17:52:49.848Z,9.53
2019-01-12T17:55:20.630Z,8.43
2019-01-12T17:57:49.901Z,9.85
2019-01-12T18:00:27.751Z,11.97
2019-01-12T18:02:56.858Z,11.33
2019-01-12T18:05:27.443Z,13.28
2019-01-12T18:07:56.579Z,9.88
2019-01-12T18:10:25.608Z,8.55
2019-01-12T18:12:54.648Z,9.33
2019-01-12T18:15:23.571Z,7.60
2019-01-12T18:17:52.487Z,10.53
2019-01-12T18:20:21.542Z,7.70
2019-01-12T18:22:50.568Z,9.00
2019-01-12T18:25:19.618Z,9.23
2019-01-12T18:27:48.775Z,12.35
2019-01-12T18:30:19.322Z,6.58
2019-01-12T18:32:48.231Z,7.50
2019-01-12T18:35:17.438Z,8.38
2019-01-12T18:37:46.319Z,9.10
2019-01-12T18:40:16.378Z,6.53
2019-01-12T18:42:45.450Z,8.33
2019-01-12T18:45:16.082Z,6.60
2019-01-12T18:47:45.253Z,7.97
2019-01-12T18:50:19.065Z,9.08
2019-01-12T18:52:48.116Z,0.30
2019-01-12T18:55:17.156Z,0.40
2019-01-12T18:57:47.169Z,0.30
2019-01-12T19:00:21.210Z,0.40
2019-01-12T19:02:52.591Z,0.40
2019-01-12T19:05:21.804Z,0.30
2019-01-12T19:07:51.050Z,0.30
2019-01-12T19:10:20.216Z,0.30
2019-01-12T19:12:49.333Z,0.30
2019-01-12T19:15:23.843Z,0.30
2019-01-12T19:17:53.072Z,0.30
2019-01-12T19:20:22.084Z,0.40
2019-01-12T19:22:51.022Z,0.30
2019-01-12T19:25:23.121Z,0.30
2019-01-12T19:27:53.074Z,0.30
2019-01-12T19:30:23.232Z,0.30
2019-01-12T19:32:52.311Z,0.30
2019-01-12T19:35:21.440Z,0.30
2019-01-12T19:37:50.447Z,0.40
2019-01-12T19:40:24.029Z,0.40
2019-01-12T19:42:52.906Z,0.40
2019-01-12T19:45:21.963Z,0.30
2019-01-12T19:47:52.279Z,0.40
2019-01-12T19:50:26.097Z,0.30
2019-01-12T19:52:58.684Z,0.30
2019-01-12T19:55:27.658Z,0.30
2019-01-12T19:57:57.263Z,0.40
2019-01-12T20:00:39.359Z,0.30
2019-01-12T20:03:08.250Z,0.40
2019-01-12T20:05:38.716Z,0.40
2019-01-12T20:08:07.787Z,0.40
2019-01-12T20:10:36.732Z,0.30
2019-01-12T20:13:05.691Z,0.40
2019-01-12T20:15:34.665Z,0.40
2019-01-12T20:18:03.854Z,0.72
2019-01-12T20:20:32.695Z,0.30
2019-01-12T20:23:02.019Z,0.40
2019-01-12T20:25:31.866Z,0.30
2019-01-12T20:28:06.698Z,0.40
2019-01-12T20:30:48.412Z,0.35
2019-01-12T20:33:27.630Z,0.30
2019-01-12T20:36:38.865Z,0.40
2019-01-12T20:39:42.895Z,0.40
2019-01-12T20:42:45.094Z,0.30
2019-01-12T20:45:57.647Z,0.40
2019-01-12T20:48:58.308Z,0.30
2019-01-12T20:51:57.324Z,0.37
2019-01-12T20:55:12.927Z,0.40
2019-01-12T20:58:24.500Z,0.40
2019-01-12T21:01:44.348Z,0.40
2019-01-12T21:04:34.529Z,0.40
2019-01-12T21:07:33.566Z,0.30
2019-01-12T21:10:37.794Z,0.30
2019-01-12T21:13:50.404Z,0.30
2019-01-12T21:16:27.386Z,0.30
2019-01-12T21:18:56.600Z,0.40
2019-01-12T21:21:25.492Z,0.40
2019-01-12T21:23:54.603Z,0.40
2019-01-12T21:26:23.852Z,0.30
2019-01-12T21:28:52.862Z,0.35
2019-01-12T21:31:21.787Z,0.40
2019-01-12T21:33:50.961Z,0.40
2019-01-12T21:36:20.198Z,0.40
2019-01-12T21:38:48.950Z,0.30
2019-01-12T21:41:17.778Z,0.40
2019-01-12T21:43:46.615Z,0.30
2019-01-12T21:46:16.723Z,0.40
2019-01-12T21:48:45.749Z,0.30
2019-01-12T21:51:14.724Z,0.40
2019-01-12T21:53:43.697Z,0.40
2019-01-12T21:56:14.203Z,0.30
2019-01-12T21:58:43.252Z,0.40
2019-01-12T22:01:12.459Z,0.40
2019-01-12T22:03:41.604Z,0.30
2019-01-12T22:06:10.653Z,0.40
2019-01-12T22:08:39.420Z,0.30
2019-01-12T22:11:08.490Z,0.37
2019-01-12T22:13:37.452Z,0.40
2019-01-12T22:16:06.641Z,0.40
2019-01-12T22:18:35.760Z,0.30
2019-01-12T22:21:04.684Z,0.40
2019-01-12T22:23:33.602Z,0.40
2019-01-12T22:26:02.654Z,0.30
2019-01-12T22:28:31.593Z,0.30
2019-01-12T22:31:00.510Z,0.30
2019-01-12T22:33:29.435Z,0.30
2019-01-12T22:35:58.474Z,0.30
2019-01-12T22:38:27.387Z,0.30
2019-01-12T22:40:56.259Z,0.40
2019-01-12T22:43:25.547Z,0.40
2019-01-12T22:45:54.282Z,0.30
2019-01-12T22:48:26.134Z,0.40
2019-01-12T22:50:55.374Z,0.40
2019-01-12T22:53:24.500Z,0.40
2019-01-12T22:55:53.676Z,0.30
2019-01-12T22:58:22.665Z,0.30
2019-01-12T23:01:11.411Z,0.40
2019-01-12T23:03:46.816Z,0.30
2019-01-12T23:06:15.873Z,0.40
2019-01-12T23:08:44.845Z,0.40
2019-01-12T23:11:13.768Z,0.30
2019-01-12T23:13:42.542Z,0.40
2019-01-12T23:16:11.578Z,0.60
2019-01-12T23:18:40.675Z,0.30
2019-01-12T23:21:09.996Z,0.40
2019-01-12T23:23:38.860Z,0.35
2019-01-12T23:26:07.658Z,0.40
2019-01-12T23:28:36.883Z,0.40
2019-01-12T23:31:05.914Z,0.30
2019-01-12T23:33:35.140Z,0.40
2019-01-12T23:36:04.668Z,0.40
2019-01-12T23:38:33.760Z,0.40
2019-01-12T23:41:02.783Z,0.42
2019-01-12T23:43:32.015Z,0.40
2019-01-12T23:46:00.985Z,0.47
2019-01-12T23:48:32.382Z,0.30
2019-01-12T23:51:01.285Z,0.40
2019-01-12T23:53:30.380Z,0.37
2019-01-12T23:55:59.706Z,0.40
2019-01-12T23:58:28.654Z,0.30
